Adventurer K — V3UR7 — position and weather

sailwx.info

Track history (hours):
 
Tides and Currents Weather Stations Pressure Air Temp Water Temp Dewpoint Dewpoint Depression Visibility Wind Speed Wind Dir Waves Ship Positions

Adventurer K

Last reported at 2017-Oct-25 17:02 UTC. Time now 2017-Dec-12 21:57 UTC.
Position N 37°23' E 025°55'.
Warning: this ship's position is 48 days out of date.

Length 166 m; draft 9.8 m.

Type: Cargo ship. MMSI: 312742000.

Date/timePositionNaut miles runAvg speedWind from/ knotsBaromVisibWave heightAir tempDewpointWater temp
2017-Oct-25 17:02N 37°23' E 025°55'0 9.9
2017-Oct-25 17:01N 37°23' E 025°55'510.8
2017-Oct-25 16:30N 37°28' E 025°52'20 2.2
2017-Oct-25 07:34N 37°47' E 025°45'0 0.7
2017-Oct-25 07:30N 37°47' E 025°45'1 0.3
2017-Oct-25 05:30N 37°46' E 025°46'0 0.2
2017-Oct-25 04:55N 37°46' E 025°46'1 0.8
2017-Oct-25 04:10N 37°47' E 025°45'  
2017-Oct-22 01:03N 41°16' E 029°20'0 0.4
2017-Oct-22 01:00N 41°16' E 029°20'0 0.4
2017-Oct-22 00:30N 41°16' E 029°20'0 0.4
2017-Oct-22 00:00N 41°16' E 029°20'52 2.3
2017-Oct-21 01:15N 41°53' E 030°09'210.1
2017-Oct-21 01:00N 41°54' E 030°11'510.3
2017-Oct-21 00:30N 41°57' E 030°17'510.3
2017-Oct-21 00:00N 42°00' E 030°23'510.0
2017-Oct-20 23:30N 42°03' E 030°28'5 9.7
2017-Oct-20 23:00N 42°06' E 030°34'5 9.5
2017-Oct-20 22:30N 42°08' E 030°39'5 9.5
2017-Oct-20 22:00N 42°11' E 030°44'5 9.1
2017-Oct-20 21:30N 42°13' E 030°50'5 9.1
2017-Oct-20 21:00N 42°15' E 030°55'5 9.4
2017-Oct-20 20:30N 42°18' E 031°00'5 9.7
2017-Oct-20 20:00N 42°21' E 031°06'5 9.9
2017-Oct-20 19:30N 42°23' E 031°12'1110.3
2017-Oct-20 18:24N 42°29' E 031°24'410.4
2017-Oct-20 17:59N 42°32' E 031°29'510.5
2017-Oct-20 17:30N 42°34' E 031°35'510.5
2017-Oct-20 17:00N 42°37' E 031°41'510.4
2017-Oct-20 16:30N 42°40' E 031°47'510.5
2017-Oct-20 16:00N 42°43' E 031°53'510.7
2017-Oct-20 15:30N 42°46' E 031°59'510.6
2017-Oct-20 15:00N 42°49' E 032°05'1110.8
2017-Oct-20 14:00N 42°56' E 032°17'510.6
2017-Oct-20 13:30N 42°59' E 032°23'223 6.0
2017-Oct-19 00:24N 45°10' E 036°32'0 0.0
2017-Oct-18 10:15N 45°10' E 036°32'0 0.0
2017-Oct-18 10:00N 45°10' E 036°32'0 0.0
2017-Oct-18 01:15N 45°10' E 036°32'0 0.0
2017-Oct-16 19:24N 45°10' E 036°32'1 1.7
2017-Oct-16 19:00N 45°10' E 036°33'1 0.1
2017-Oct-16 08:56N 45°09' E 036°33'0 0.0
2017-Oct-16 08:11N 45°09' E 036°33'0 0.0
2017-Oct-16 07:53N 45°09' E 036°33'0 0.0
2017-Oct-16 06:44N 45°09' E 036°33'0 0.0
2017-Oct-16 06:29N 45°09' E 036°33'0 0.0
2017-Oct-15 23:23N 45°09' E 036°33'0 0.1
2017-Oct-15 21:14N 45°09' E 036°34'0 0.0
2017-Oct-15 20:59N 45°09' E 036°34'0 0.0
2017-Oct-15 20:17N 45°09' E 036°34'0 0.0
2017-Oct-15 19:53N 45°09' E 036°34'0 0.0
2017-Oct-15 19:08N 45°09' E 036°34'0 0.0
2017-Oct-15 18:59N 45°09' E 036°34'  
Track history (hours):
 
Tides and Currents Weather Stations Pressure Air Temp Water Temp Dewpoint Dewpoint Depression Visibility Wind Speed Wind Dir Waves Ship Positions

Adventurer K

Last reported at 2017-Oct-25 17:02 UTC. Time now 2017-Dec-12 21:57 UTC.
Position N 37°23' E 025°55'.
Warning: this ship's position is 48 days out of date.

Length 166 m; draft 9.8 m.

Type: Cargo ship. MMSI: 312742000.

Date/timePositionNaut miles runAvg speedWind from/ knotsBaromVisibWave heightAir tempDewpointWater temp
2017-Oct-25 17:02N 37°23' E 025°55'0 9.9
2017-Oct-25 17:01N 37°23' E 025°55'510.8
2017-Oct-25 16:30N 37°28' E 025°52'20 2.2
2017-Oct-25 07:34N 37°47' E 025°45'0 0.7
2017-Oct-25 07:30N 37°47' E 025°45'1 0.3
2017-Oct-25 05:30N 37°46' E 025°46'0 0.2
2017-Oct-25 04:55N 37°46' E 025°46'1 0.8
2017-Oct-25 04:10N 37°47' E 025°45'  
2017-Oct-22 01:03N 41°16' E 029°20'0 0.4
2017-Oct-22 01:00N 41°16' E 029°20'0 0.4
2017-Oct-22 00:30N 41°16' E 029°20'0 0.4
2017-Oct-22 00:00N 41°16' E 029°20'52 2.3
2017-Oct-21 01:15N 41°53' E 030°09'210.1
2017-Oct-21 01:00N 41°54' E 030°11'510.3
2017-Oct-21 00:30N 41°57' E 030°17'510.3
2017-Oct-21 00:00N 42°00' E 030°23'510.0
2017-Oct-20 23:30N 42°03' E 030°28'5 9.7
2017-Oct-20 23:00N 42°06' E 030°34'5 9.5
2017-Oct-20 22:30N 42°08' E 030°39'5 9.5
2017-Oct-20 22:00N 42°11' E 030°44'5 9.1
2017-Oct-20 21:30N 42°13' E 030°50'5 9.1
2017-Oct-20 21:00N 42°15' E 030°55'5 9.4
2017-Oct-20 20:30N 42°18' E 031°00'5 9.7
2017-Oct-20 20:00N 42°21' E 031°06'5 9.9
2017-Oct-20 19:30N 42°23' E 031°12'1110.3
2017-Oct-20 18:24N 42°29' E 031°24'410.4
2017-Oct-20 17:59N 42°32' E 031°29'510.5
2017-Oct-20 17:30N 42°34' E 031°35'510.5
2017-Oct-20 17:00N 42°37' E 031°41'510.4
2017-Oct-20 16:30N 42°40' E 031°47'510.5
2017-Oct-20 16:00N 42°43' E 031°53'510.7
2017-Oct-20 15:30N 42°46' E 031°59'510.6
2017-Oct-20 15:00N 42°49' E 032°05'1110.8
2017-Oct-20 14:00N 42°56' E 032°17'510.6
2017-Oct-20 13:30N 42°59' E 032°23'223 6.0
2017-Oct-19 00:24N 45°10' E 036°32'0 0.0
2017-Oct-18 10:15N 45°10' E 036°32'0 0.0
2017-Oct-18 10:00N 45°10' E 036°32'0 0.0
2017-Oct-18 01:15N 45°10' E 036°32'0 0.0
2017-Oct-16 19:24N 45°10' E 036°32'1 1.7
2017-Oct-16 19:00N 45°10' E 036°33'1 0.1
2017-Oct-16 08:56N 45°09' E 036°33'0 0.0
2017-Oct-16 08:11N 45°09' E 036°33'0 0.0
2017-Oct-16 07:53N 45°09' E 036°33'0 0.0
2017-Oct-16 06:44N 45°09' E 036°33'0 0.0
2017-Oct-16 06:29N 45°09' E 036°33'0 0.0
2017-Oct-15 23:23N 45°09' E 036°33'0 0.1
2017-Oct-15 21:14N 45°09' E 036°34'0 0.0
2017-Oct-15 20:59N 45°09' E 036°34'0 0.0
2017-Oct-15 20:17N 45°09' E 036°34'0 0.0
2017-Oct-15 19:53N 45°09' E 036°34'0 0.0
2017-Oct-15 19:08N 45°09' E 036°34'0 0.0
2017-Oct-15 18:59N 45°09' E 036°34'  

Dump ship's entire track history